createdAt,value
2018-12-13T00:00:00.714Z,23.70
2018-12-13T00:02:29.962Z,23.60
2018-12-13T00:04:59.278Z,23.30
2018-12-13T00:07:28.538Z,23.10
2018-12-13T00:09:57.736Z,23.30
2018-12-13T00:12:26.963Z,23.10
2018-12-13T00:14:56.285Z,22.90
2018-12-13T00:17:25.465Z,22.90
2018-12-13T00:19:54.690Z,23.30
2018-12-13T00:22:23.945Z,23.30
2018-12-13T00:24:53.167Z,22.90
2018-12-13T00:27:22.465Z,22.60
2018-12-13T00:29:51.645Z,23.00
2018-12-13T00:32:20.870Z,23.00
2018-12-13T00:34:50.155Z,23.00
2018-12-13T00:37:19.921Z,23.10
2018-12-13T00:39:49.172Z,23.10
2018-12-13T00:42:18.423Z,23.30
2018-12-13T00:44:47.655Z,23.10
2018-12-13T00:47:16.901Z,23.20
2018-12-13T00:49:46.106Z,23.40
2018-12-13T00:52:15.413Z,23.60
2018-12-13T00:54:44.624Z,23.70
2018-12-13T00:57:13.804Z,23.70
2018-12-13T00:59:43.032Z,23.70
2018-12-13T01:02:14.193Z,23.60
2018-12-13T01:04:43.364Z,23.60
2018-12-13T01:07:13.516Z,23.70
2018-12-13T01:09:42.729Z,23.70
2018-12-13T01:12:11.946Z,23.70
2018-12-13T01:14:41.125Z,23.70
2018-12-13T01:17:10.364Z,23.50
2018-12-13T01:19:39.575Z,23.50
2018-12-13T01:22:08.801Z,23.30
2018-12-13T01:24:37.998Z,23.30
2018-12-13T01:27:07.211Z,23.30
2018-12-13T01:29:36.437Z,23.40
2018-12-13T01:32:05.661Z,23.50
2018-12-13T01:34:34.964Z,23.50
2018-12-13T01:37:04.231Z,23.40
2018-12-13T01:39:33.939Z,23.40
2018-12-13T01:42:03.203Z,23.40
2018-12-13T01:44:32.532Z,23.20
2018-12-13T01:47:01.858Z,23.10
2018-12-13T01:49:31.066Z,23.10
2018-12-13T01:52:00.456Z,23.20
2018-12-13T01:54:29.677Z,23.20
2018-12-13T01:56:58.895Z,23.10
2018-12-13T01:59:28.087Z,23.10
2018-12-13T02:01:57.328Z,23.00
2018-12-13T02:04:26.660Z,22.90
2018-12-13T02:06:58.699Z,23.00
2018-12-13T02:09:27.361Z,23.10
2018-12-13T02:11:56.708Z,23.10
2018-12-13T02:14:27.423Z,22.90
2018-12-13T02:16:56.746Z,23.00
2018-12-13T02:19:25.976Z,22.80
2018-12-13T02:21:55.252Z,22.90
2018-12-13T02:24:24.624Z,22.80
2018-12-13T02:26:53.865Z,22.80
2018-12-13T02:29:23.024Z,22.70
2018-12-13T02:31:52.192Z,22.70
2018-12-13T02:34:21.396Z,22.70
2018-12-13T02:36:50.639Z,22.70
2018-12-13T02:39:20.819Z,22.80
2018-12-13T02:41:50.283Z,22.80
2018-12-13T02:44:19.472Z,22.70
2018-12-13T02:46:48.703Z,22.70
2018-12-13T02:49:18.709Z,22.70
2018-12-13T02:51:47.974Z,22.60
2018-12-13T02:54:17.199Z,22.70
2018-12-13T02:56:46.359Z,22.60
2018-12-13T02:59:15.624Z,22.50
2018-12-13T03:01:45.115Z,22.50
2018-12-13T03:04:14.311Z,22.50
2018-12-13T03:06:43.561Z,22.40
2018-12-13T03:09:12.748Z,22.40
2018-12-13T03:11:41.895Z,22.40
2018-12-13T03:14:11.090Z,22.50
2018-12-13T03:16:40.279Z,22.50
2018-12-13T03:19:09.582Z,22.40
2018-12-13T03:21:38.835Z,21.70
2018-12-13T03:24:08.061Z,21.40
2018-12-13T03:26:37.230Z,21.60
2018-12-13T03:29:06.405Z,21.80
2018-12-13T03:31:35.642Z,21.80
2018-12-13T03:34:04.976Z,21.90
2018-12-13T03:36:34.181Z,21.50
2018-12-13T03:39:03.517Z,21.60
2018-12-13T03:41:32.845Z,21.40
2018-12-13T03:44:02.779Z,21.30
2018-12-13T03:46:32.005Z,21.40
2018-12-13T03:49:01.252Z,21.60
2018-12-13T03:51:30.494Z,21.50
2018-12-13T03:53:59.819Z,21.40
2018-12-13T03:56:29.059Z,21.30
2018-12-13T03:58:58.249Z,21.30
2018-12-13T04:01:27.458Z,21.30
2018-12-13T04:03:56.852Z,21.20
2018-12-13T04:06:26.062Z,21.40
2018-12-13T04:08:55.274Z,21.40
2018-12-13T04:11:24.578Z,21.50
2018-12-13T04:13:53.927Z,21.50
2018-12-13T04:16:23.138Z,21.40
2018-12-13T04:18:52.415Z,21.40
2018-12-13T04:21:21.664Z,21.40
2018-12-13T04:23:50.939Z,21.40
2018-12-13T04:26:20.264Z,21.50
2018-12-13T04:28:49.856Z,21.60
2018-12-13T04:31:19.051Z,21.60
2018-12-13T04:33:48.348Z,21.40
2018-12-13T04:36:17.535Z,21.30
2018-12-13T04:38:46.753Z,21.30
2018-12-13T04:41:15.958Z,21.30
2018-12-13T04:43:45.159Z,21.30
2018-12-13T04:46:14.924Z,21.40
2018-12-13T04:48:44.229Z,21.40
2018-12-13T04:51:13.411Z,21.40
2018-12-13T04:53:42.730Z,21.40
2018-12-13T04:56:12.692Z,21.40
2018-12-13T04:58:42.277Z,21.40
2018-12-13T05:01:11.503Z,21.20
2018-12-13T05:03:40.710Z,21.20
2018-12-13T05:06:09.932Z,21.20
2018-12-13T05:08:39.193Z,21.10
2018-12-13T05:11:08.413Z,21.20
2018-12-13T05:13:37.658Z,21.10
2018-12-13T05:16:06.870Z,21.10
2018-12-13T05:18:36.076Z,21.10
2018-12-13T05:21:05.266Z,20.90
2018-12-13T05:23:34.515Z,20.80
2018-12-13T05:26:03.739Z,20.90
2018-12-13T05:28:32.978Z,20.80
2018-12-13T05:31:02.209Z,20.90
2018-12-13T05:33:31.415Z,20.90
2018-12-13T05:36:00.613Z,21.00
2018-12-13T05:38:29.857Z,20.90
2018-12-13T05:40:59.057Z,20.80
2018-12-13T05:43:28.307Z,20.60
2018-12-13T05:45:57.722Z,20.40
2018-12-13T05:48:27.292Z,20.10
2018-12-13T05:50:56.462Z,20.10
2018-12-13T05:53:25.703Z,20.10
2018-12-13T05:55:54.949Z,20.20
2018-12-13T05:58:24.135Z,19.90
2018-12-13T06:00:53.292Z,19.60
2018-12-13T06:03:22.660Z,19.80
2018-12-13T06:05:51.938Z,19.60
2018-12-13T06:08:21.149Z,20.00
2018-12-13T06:10:50.371Z,20.30
2018-12-13T06:13:19.583Z,20.20
2018-12-13T06:15:48.774Z,20.30
2018-12-13T06:18:18.089Z,20.40
2018-12-13T06:20:47.326Z,20.40
2018-12-13T06:23:16.552Z,20.40
2018-12-13T06:25:45.808Z,20.50
2018-12-13T06:28:15.023Z,20.60
2018-12-13T06:30:44.581Z,20.70
2018-12-13T06:33:13.811Z,20.70
2018-12-13T06:35:42.994Z,20.90
2018-12-13T06:38:12.225Z,20.80
2018-12-13T06:40:41.577Z,20.80
2018-12-13T06:43:10.742Z,20.80
2018-12-13T06:45:39.922Z,20.80
2018-12-13T06:48:09.123Z,20.70
2018-12-13T06:50:38.741Z,20.80
2018-12-13T06:53:07.972Z,20.60
2018-12-13T06:55:37.192Z,20.00
2018-12-13T06:58:06.445Z,19.70
2018-12-13T07:00:35.665Z,19.60
2018-12-13T07:03:04.905Z,19.70
2018-12-13T07:05:34.158Z,19.70
2018-12-13T07:08:07.897Z,19.30
2018-12-13T07:10:34.751Z,19.20
2018-12-13T07:13:03.924Z,18.90
2018-12-13T07:15:33.139Z,18.80
2018-12-13T07:18:02.432Z,18.80
2018-12-13T07:20:31.679Z,18.70
2018-12-13T07:23:00.896Z,18.60
2018-12-13T07:25:30.073Z,18.50
2018-12-13T07:27:59.302Z,18.60
2018-12-13T07:30:28.547Z,18.50
2018-12-13T07:32:57.795Z,18.70
2018-12-13T07:35:27.020Z,18.70
2018-12-13T07:37:56.226Z,18.70
2018-12-13T07:40:25.857Z,18.80
2018-12-13T07:42:55.069Z,18.90
2018-12-13T07:45:24.252Z,18.90
2018-12-13T07:47:53.396Z,18.90
2018-12-13T07:50:22.684Z,18.70
2018-12-13T07:52:52.545Z,18.40
2018-12-13T07:55:21.843Z,18.50
2018-12-13T07:57:51.062Z,18.70
2018-12-13T08:00:20.286Z,18.70
2018-12-13T08:02:49.461Z,18.60
2018-12-13T08:05:18.748Z,18.40
2018-12-13T08:07:47.954Z,18.40
2018-12-13T08:10:17.145Z,18.60
2018-12-13T08:12:46.376Z,18.50
2018-12-13T08:15:15.597Z,18.40
2018-12-13T08:17:44.802Z,18.30
2018-12-13T08:20:13.955Z,18.40
2018-12-13T08:22:43.150Z,18.40
2018-12-13T08:25:12.381Z,18.50
2018-12-13T08:27:41.599Z,18.50
2018-12-13T08:30:10.959Z,18.40
2018-12-13T08:32:40.149Z,18.20
2018-12-13T08:35:09.451Z,18.10
2018-12-13T08:37:38.827Z,18.00
2018-12-13T08:40:08.284Z,18.10
2018-12-13T08:42:37.480Z,18.30
2018-12-13T08:45:06.807Z,18.40
2018-12-13T08:47:36.021Z,18.40
2018-12-13T08:50:05.810Z,18.40
2018-12-13T08:52:35.011Z,18.50
2018-12-13T08:55:04.711Z,18.50
2018-12-13T08:57:33.936Z,18.40
2018-12-13T09:00:03.133Z,18.40
2018-12-13T09:02:32.417Z,18.40
2018-12-13T09:05:01.726Z,18.30
2018-12-13T09:07:30.891Z,18.20
2018-12-13T09:10:00.093Z,18.20
2018-12-13T09:12:29.357Z,18.20
2018-12-13T09:14:58.517Z,18.20
2018-12-13T09:17:27.744Z,18.10
2018-12-13T09:19:57.023Z,18.20
2018-12-13T09:22:26.286Z,18.20
2018-12-13T09:24:55.472Z,18.10
2018-12-13T09:27:24.674Z,18.10
2018-12-13T09:29:53.854Z,18.10
2018-12-13T09:32:23.003Z,18.10
2018-12-13T09:34:52.215Z,18.10
2018-12-13T09:37:21.459Z,18.10
2018-12-13T09:39:50.703Z,18.10
2018-12-13T09:42:19.955Z,18.20
2018-12-13T09:44:49.112Z,18.20
2018-12-13T09:47:18.336Z,18.20
2018-12-13T09:49:47.556Z,18.10
2018-12-13T09:52:16.767Z,18.10
2018-12-13T09:54:45.984Z,18.00
2018-12-13T09:57:15.912Z,18.10
2018-12-13T09:59:45.749Z,18.00
2018-12-13T10:02:14.951Z,18.10
2018-12-13T10:04:44.156Z,18.10
2018-12-13T10:07:14.469Z,18.00
2018-12-13T10:09:43.736Z,18.00
2018-12-13T10:12:12.934Z,17.90
2018-12-13T10:14:42.122Z,17.80
2018-12-13T10:17:11.292Z,17.80
2018-12-13T10:19:40.451Z,17.80
2018-12-13T10:22:11.834Z,17.80
2018-12-13T10:24:41.014Z,17.80
2018-12-13T10:27:10.234Z,17.80
2018-12-13T10:29:39.493Z,17.80
2018-12-13T10:32:08.727Z,17.80
2018-12-13T10:34:40.195Z,17.80
2018-12-13T10:37:09.424Z,17.70
2018-12-13T10:39:38.694Z,17.70
2018-12-13T10:42:07.862Z,17.70
2018-12-13T10:44:37.030Z,17.70
2018-12-13T10:47:06.583Z,17.70
2018-12-13T10:49:35.813Z,17.60
2018-12-13T10:52:05.043Z,17.60
2018-12-13T10:54:34.302Z,17.50
2018-12-13T10:57:03.502Z,17.60
2018-12-13T10:59:33.266Z,17.60
2018-12-13T11:02:02.562Z,17.60
2018-12-13T11:04:31.717Z,17.60
2018-12-13T11:07:00.902Z,17.50
2018-12-13T11:09:30.182Z,17.40
2018-12-13T11:11:59.407Z,17.50
2018-12-13T11:14:28.679Z,17.40
2018-12-13T11:16:58.980Z,17.50
2018-12-13T11:19:28.270Z,17.50
2018-12-13T11:21:57.506Z,17.60
2018-12-13T11:24:26.678Z,17.50
2018-12-13T11:27:00.182Z,17.40
2018-12-13T11:29:40.804Z,17.40
2018-12-13T11:32:09.993Z,17.30
2018-12-13T11:34:39.271Z,17.40
2018-12-13T11:37:08.558Z,17.40
2018-12-13T11:39:37.811Z,17.50
2018-12-13T11:42:07.038Z,17.40
2018-12-13T11:44:36.221Z,17.40
2018-12-13T11:47:05.821Z,17.40
2018-12-13T11:49:35.052Z,17.30
2018-12-13T11:52:04.245Z,17.30
2018-12-13T11:54:35.385Z,17.30
2018-12-13T11:57:04.650Z,17.30
2018-12-13T11:59:34.305Z,17.30
2018-12-13T12:02:03.536Z,17.30
2018-12-13T12:04:32.715Z,17.30
2018-12-13T12:07:02.032Z,17.20
2018-12-13T12:09:31.342Z,17.10
2018-12-13T12:12:00.705Z,17.00
2018-12-13T12:14:29.931Z,16.90
2018-12-13T12:16:59.345Z,16.90
2018-12-13T12:19:28.606Z,16.90
2018-12-13T12:21:57.927Z,16.90
2018-12-13T12:24:27.071Z,16.90
2018-12-13T12:26:56.369Z,16.90
2018-12-13T12:29:25.600Z,16.90
2018-12-13T12:31:54.894Z,16.90
2018-12-13T12:34:24.140Z,16.90
2018-12-13T12:36:53.391Z,16.90
2018-12-13T12:39:22.667Z,16.90
2018-12-13T12:41:51.885Z,17.10
2018-12-13T12:44:21.151Z,17.10
2018-12-13T12:46:50.378Z,17.10
2018-12-13T12:49:19.616Z,17.20
2018-12-13T12:51:48.854Z,17.40
2018-12-13T12:54:18.083Z,17.60
2018-12-13T12:56:47.303Z,18.00
2018-12-13T12:59:16.528Z,18.40
2018-12-13T13:01:46.172Z,18.50
2018-12-13T13:04:15.487Z,18.50
2018-12-13T13:06:44.711Z,18.60
2018-12-13T13:09:14.043Z,19.10
2018-12-13T13:11:43.585Z,19.70
2018-12-13T13:14:12.780Z,20.10
2018-12-13T13:16:42.074Z,20.60
2018-12-13T13:19:11.421Z,20.70
2018-12-13T13:21:40.611Z,20.50
2018-12-13T13:24:09.887Z,20.40
2018-12-13T13:26:39.235Z,20.30
2018-12-13T13:29:08.487Z,20.10
2018-12-13T13:31:37.733Z,20.30
2018-12-13T13:34:06.975Z,20.30
2018-12-13T13:36:37.174Z,20.40
2018-12-13T13:39:08.028Z,20.20
2018-12-13T13:41:37.268Z,20.10
2018-12-13T13:44:06.546Z,20.00
2018-12-13T13:46:35.836Z,19.60
2018-12-13T13:49:05.517Z,19.60
2018-12-13T13:51:34.716Z,19.70
2018-12-13T13:54:04.103Z,19.70
2018-12-13T13:56:33.396Z,20.10
2018-12-13T13:59:02.755Z,20.40
2018-12-13T14:01:32.057Z,20.80
2018-12-13T14:04:01.623Z,20.90
2018-12-13T14:06:30.897Z,20.90
2018-12-13T14:09:00.114Z,20.60
2018-12-13T14:11:29.486Z,20.70
2018-12-13T14:13:58.701Z,20.60
2018-12-13T14:16:27.990Z,20.80
2018-12-13T14:18:57.301Z,20.70
2018-12-13T14:21:26.597Z,20.50
2018-12-13T14:23:56.659Z,20.30
2018-12-13T14:26:26.000Z,20.00
2018-12-13T14:28:55.235Z,19.90
2018-12-13T14:31:24.476Z,19.90
2018-12-13T14:33:53.719Z,19.70
2018-12-13T14:36:23.039Z,19.80
2018-12-13T14:38:52.340Z,20.10
2018-12-13T14:41:21.699Z,20.40
2018-12-13T14:43:50.932Z,20.50
2018-12-13T14:46:22.209Z,20.80
2018-12-13T14:48:51.516Z,21.20
2018-12-13T14:51:20.941Z,21.60
2018-12-13T14:53:50.235Z,22.30
2018-12-13T14:56:19.580Z,23.00
2018-12-13T14:58:48.925Z,23.70
2018-12-13T15:01:18.180Z,23.60
2018-12-13T15:03:47.445Z,23.60
2018-12-13T15:06:16.862Z,23.80
2018-12-13T15:08:46.133Z,24.10
2018-12-13T15:11:15.377Z,24.20
2018-12-13T15:13:44.749Z,24.40
2018-12-13T15:16:14.156Z,24.70
2018-12-13T15:18:43.391Z,24.60
2018-12-13T15:21:12.676Z,24.60
2018-12-13T15:23:41.896Z,24.80
2018-12-13T15:26:11.148Z,25.00
2018-12-13T15:28:40.471Z,25.60
2018-12-13T15:31:09.926Z,25.80
2018-12-13T15:33:46.827Z,26.20
2018-12-13T15:36:16.548Z,27.10
2018-12-13T15:38:45.877Z,27.70
2018-12-13T15:41:15.898Z,28.30
2018-12-13T15:43:45.203Z,28.00
2018-12-13T15:46:14.502Z,28.20
2018-12-13T15:48:45.102Z,28.90
2018-12-13T15:51:14.830Z,29.50
2018-12-13T15:53:44.105Z,29.50
2018-12-13T15:56:13.364Z,28.80
2018-12-13T15:58:42.802Z,29.30
2018-12-13T16:01:12.263Z,29.50
2018-12-13T16:03:41.630Z,29.00
2018-12-13T16:06:10.900Z,29.50
2018-12-13T16:08:40.398Z,30.10
2018-12-13T16:11:09.790Z,29.90
2018-12-13T16:13:39.181Z,30.10
2018-12-13T16:16:08.480Z,30.30
2018-12-13T16:18:37.879Z,30.60
2018-12-13T16:21:07.293Z,30.90
2018-12-13T16:23:37.706Z,31.20
2018-12-13T16:26:08.191Z,31.20
2018-12-13T16:28:37.649Z,31.40
2018-12-13T16:31:06.933Z,31.70
2018-12-13T16:33:36.315Z,31.70
2018-12-13T16:36:05.634Z,31.90
2018-12-13T16:38:36.167Z,31.30
2018-12-13T16:41:05.757Z,30.90
2018-12-13T16:43:35.264Z,31.70
2018-12-13T16:46:04.806Z,32.10
2018-12-13T16:48:34.317Z,32.30
2018-12-13T16:51:03.580Z,32.90
2018-12-13T16:53:32.914Z,32.60
2018-12-13T16:56:02.304Z,32.10
2018-12-13T16:58:31.634Z,31.30
2018-12-13T17:01:00.969Z,31.30
2018-12-13T17:03:41.982Z,30.70
2018-12-13T17:06:11.319Z,30.60
2018-12-13T17:08:41.212Z,30.60
2018-12-13T17:11:10.453Z,31.30
2018-12-13T17:13:39.728Z,31.90
2018-12-13T17:16:09.968Z,31.40
2018-12-13T17:18:40.177Z,30.80
2018-12-13T17:21:09.617Z,30.70
2018-12-13T17:23:41.939Z,30.20
2018-12-13T17:26:11.547Z,30.50
2018-12-13T17:28:40.940Z,31.30
2018-12-13T17:31:10.228Z,32.00
2018-12-13T17:33:39.558Z,31.20
2018-12-13T17:36:08.824Z,31.40
2018-12-13T17:38:38.057Z,32.10
2018-12-13T17:41:08.673Z,32.30
2018-12-13T17:43:38.339Z,31.50
2018-12-13T17:46:07.586Z,31.70
2018-12-13T17:48:36.998Z,31.70
2018-12-13T17:51:06.302Z,31.30
2018-12-13T17:53:35.679Z,31.50
2018-12-13T17:56:04.987Z,31.70
2018-12-13T17:58:34.199Z,31.70
2018-12-13T18:01:03.453Z,31.50
2018-12-13T18:03:32.877Z,31.80
2018-12-13T18:06:02.180Z,31.40
2018-12-13T18:08:31.445Z,30.40
2018-12-13T18:11:01.652Z,30.90
2018-12-13T18:13:30.919Z,30.70
2018-12-13T18:16:01.250Z,30.60
2018-12-13T18:18:30.497Z,30.60
2018-12-13T18:20:59.838Z,31.40
2018-12-13T18:23:29.156Z,31.90
2018-12-13T18:25:58.418Z,31.90
2018-12-13T18:28:27.948Z,32.30
2018-12-13T18:30:57.180Z,31.90
2018-12-13T18:33:26.456Z,32.30
2018-12-13T18:35:55.746Z,31.80
2018-12-13T18:38:25.227Z,31.70
2018-12-13T18:40:54.593Z,32.10
2018-12-13T18:43:23.843Z,32.30
2018-12-13T18:45:53.133Z,32.90
2018-12-13T18:48:22.434Z,31.80
2018-12-13T18:50:51.837Z,32.30
2018-12-13T18:53:21.143Z,32.40
2018-12-13T18:55:51.375Z,32.40
2018-12-13T18:58:20.655Z,32.40
2018-12-13T19:00:50.087Z,32.30
2018-12-13T19:03:19.312Z,32.90
2018-12-13T19:05:49.461Z,32.70
2018-12-13T19:08:18.823Z,33.00
2018-12-13T19:10:48.556Z,32.70
2018-12-13T19:13:18.461Z,32.20
2018-12-13T19:15:48.659Z,32.10
2018-12-13T19:18:17.893Z,31.70
2018-12-13T19:20:47.173Z,31.10
2018-12-13T19:23:16.560Z,31.60
2018-12-13T19:25:45.819Z,31.70
2018-12-13T19:28:15.080Z,32.40
2018-12-13T19:30:44.236Z,31.80
2018-12-13T19:33:13.405Z,30.50
2018-12-13T19:35:42.602Z,30.60
2018-12-13T19:38:11.790Z,31.20
2018-12-13T19:40:40.959Z,31.60
2018-12-13T19:43:10.187Z,31.80
2018-12-13T19:45:39.416Z,31.60
2018-12-13T19:48:08.758Z,31.30
2018-12-13T19:50:38.409Z,31.70
2018-12-13T19:53:07.664Z,31.60
2018-12-13T19:55:36.867Z,31.80
2018-12-13T19:58:06.132Z,31.60
2018-12-13T20:00:35.467Z,30.90
2018-12-13T20:03:04.832Z,31.00
2018-12-13T20:05:34.271Z,31.00
2018-12-13T20:08:03.470Z,31.30
2018-12-13T20:10:32.688Z,31.20
2018-12-13T20:13:02.048Z,31.60
2018-12-13T20:15:32.183Z,31.40
2018-12-13T20:18:01.464Z,31.20
2018-12-13T20:20:31.121Z,31.20
2018-12-13T20:23:00.348Z,30.80
2018-12-13T20:25:29.557Z,30.70
2018-12-13T20:27:58.872Z,30.70
2018-12-13T20:30:28.289Z,30.10
2018-12-13T20:32:58.556Z,30.80
2018-12-13T20:35:28.020Z,30.90
2018-12-13T20:37:57.457Z,30.50
2018-12-13T20:40:26.673Z,30.00
2018-12-13T20:42:55.952Z,30.10
2018-12-13T20:45:25.207Z,30.70
2018-12-13T20:47:54.458Z,30.40
2018-12-13T20:50:23.705Z,30.00
2018-12-13T20:52:54.373Z,30.20
2018-12-13T20:55:23.708Z,30.00
2018-12-13T20:57:53.066Z,29.30
2018-12-13T21:00:22.468Z,29.00
2018-12-13T21:02:51.680Z,29.30
2018-12-13T21:05:20.875Z,29.10
2018-12-13T21:07:50.146Z,28.90
2018-12-13T21:10:19.351Z,28.90
2018-12-13T21:12:48.598Z,28.80
2018-12-13T21:15:17.809Z,28.60
2018-12-13T21:17:47.228Z,28.20
2018-12-13T21:20:16.695Z,27.90
2018-12-13T21:22:45.926Z,27.60
2018-12-13T21:25:15.158Z,27.60
2018-12-13T21:27:44.424Z,27.80
2018-12-13T21:30:13.659Z,27.60
2018-12-13T21:32:42.923Z,27.60
2018-12-13T21:35:12.120Z,27.80
2018-12-13T21:37:41.395Z,28.00
2018-12-13T21:40:10.781Z,27.20
2018-12-13T21:42:40.045Z,27.30
2018-12-13T21:45:09.370Z,27.00
2018-12-13T21:47:38.618Z,27.20
2018-12-13T21:50:09.050Z,27.20
2018-12-13T21:52:38.441Z,27.20
2018-12-13T21:55:07.905Z,27.40
2018-12-13T21:57:37.296Z,27.40
2018-12-13T22:00:10.131Z,27.20
2018-12-13T22:02:39.361Z,26.90
2018-12-13T22:05:08.607Z,26.80
2018-12-13T22:07:37.833Z,26.70
2018-12-13T22:10:07.970Z,25.90
2018-12-13T22:12:37.293Z,25.90
2018-12-13T22:15:12.022Z,25.60
2018-12-13T22:17:41.229Z,25.30
2018-12-13T22:20:11.011Z,25.40
2018-12-13T22:22:40.271Z,25.50
2018-12-13T22:25:09.868Z,25.30
2018-12-13T22:27:39.695Z,25.00
2018-12-13T22:30:08.981Z,25.00
2018-12-13T22:32:38.287Z,24.90
2018-12-13T22:35:07.514Z,24.70
2018-12-13T22:37:36.796Z,24.60
2018-12-13T22:40:06.023Z,24.70
2018-12-13T22:42:35.223Z,24.60
2018-12-13T22:45:04.572Z,24.60
2018-12-13T22:47:33.827Z,24.70
2018-12-13T22:50:03.218Z,24.20
2018-12-13T22:52:32.445Z,24.20
2018-12-13T22:55:01.704Z,24.20
2018-12-13T22:57:30.974Z,24.30
2018-12-13T23:00:00.628Z,24.40
2018-12-13T23:02:29.921Z,24.40
2018-12-13T23:04:59.115Z,24.00
2018-12-13T23:07:28.396Z,24.00
2018-12-13T23:09:57.911Z,23.80
2018-12-13T23:12:29.388Z,24.00
2018-12-13T23:14:59.118Z,23.90
2018-12-13T23:17:28.504Z,23.80
2018-12-13T23:19:57.854Z,23.80
2018-12-13T23:22:27.604Z,23.70
2018-12-13T23:24:56.808Z,23.80
2018-12-13T23:27:26.034Z,23.50
2018-12-13T23:29:55.295Z,23.40
2018-12-13T23:32:24.705Z,23.40
2018-12-13T23:34:53.973Z,23.40
2018-12-13T23:37:23.209Z,23.40
2018-12-13T23:39:52.474Z,23.40
2018-12-13T23:42:21.736Z,23.50
2018-12-13T23:44:51.106Z,23.50
2018-12-13T23:47:20.366Z,23.30
2018-12-13T23:49:49.667Z,23.00
2018-12-13T23:52:18.920Z,22.90
2018-12-13T23:54:48.188Z,23.10
2018-12-13T23:57:17.461Z,23.10
2018-12-13T23:59:46.761Z,23.10
